Time;durP1;ratioP1;P1;durP2;ratioP2;P2;SDS_P1;SDS_P2;PMS_P1;PMS_P2;Temp;Humidity;BMP_temperature;BMP_pressure;BME280_temperature;BME280_humidity;BME280_pressure;Samples;Min_cycle;Max_cycle;Signal;HPM_P1;HPM_P2
2022/06/14 00:01:22;;;;;;;16.15;4.47;;;;;;;15.22;49.26;102488.25;5195775;28;20828;-40
2022/06/14 00:03:56;;;;;;;10.85;4.07;;;;;;;15.17;49.36;102481.66;5194987;28;20406;-41
2022/06/14 00:06:31;;;;;;;19.02;4.10;;;;;;;15.16;49.52;102485.28;5196573;28;20498;-40
2022/06/14 00:09:05;;;;;;;16.45;4.55;;;;;;;15.07;49.46;102476.31;5188900;28;20409;-40
2022/06/14 00:11:39;;;;;;;9.00;3.38;;;;;;;15.11;49.54;102477.75;5199677;28;20433;-40
2022/06/14 00:14:12;;;;;;;15.20;4.70;;;;;;;15.09;49.53;102489.50;5198259;28;20427;-41
2022/06/14 00:16:46;;;;;;;12.45;4.18;;;;;;;15.07;49.63;102497.63;5193312;28;20403;-41
2022/06/14 00:19:18;;;;;;;13.48;3.88;;;;;;;15.02;49.72;102483.91;5196173;28;20482;-40
2022/06/14 00:21:51;;;;;;;10.53;3.63;;;;;;;14.66;49.92;102445.50;5193516;28;20819;-39
2022/06/14 00:24:26;;;;;;;12.80;3.67;;;;;;;14.95;49.78;102493.41;5196162;28;20415;-40
2022/06/14 00:26:58;;;;;;;11.87;3.73;;;;;;;14.93;49.92;102479.41;5196796;28;20415;-39
2022/06/14 00:29:31;;;;;;;15.32;3.75;;;;;;;14.92;49.96;102488.34;5196544;28;20935;-41
2022/06/14 00:32:06;;;;;;;9.70;3.30;;;;;;;14.89;49.94;102488.63;5196970;28;20932;-40
2022/06/14 00:34:38;;;;;;;10.15;3.58;;;;;;;14.87;50.13;102485.28;5196970;28;20873;-41
2022/06/14 00:37:17;;;;;;;14.33;3.90;;;;;;;14.84;50.23;102502.34;5199236;28;20955;-41
2022/06/14 00:39:49;;;;;;;9.65;2.95;;;;;;;14.77;50.27;102479.91;5192350;28;21092;-40
2022/06/14 00:42:23;;;;;;;11.88;3.90;;;;;;;14.79;50.32;102485.13;5189934;28;20412;-40
2022/06/14 00:45:07;;;;;;;9.70;3.33;;;;;;;14.76;50.37;102484.41;5191531;28;20637;-48
2022/06/14 00:47:43;;;;;;;9.68;3.30;;;;;;;14.74;50.43;102477.53;5199268;28;20423;-40
2022/06/14 00:50:22;;;;;;;9.98;3.42;;;;;;;14.62;50.49;102466.19;5189044;28;20434;-42
2022/06/14 00:53:01;;;;;;;9.20;3.38;;;;;;;14.69;50.58;102483.28;5193654;28;20412;-41
2022/06/14 00:55:40;;;;;;;10.15;3.00;;;;;;;14.38;50.55;102439.94;5192529;28;20441;-41
2022/06/14 00:58:16;;;;;;;13.95;3.40;;;;;;;14.60;50.64;102484.09;5192290;28;20554;-40
2022/06/14 01:00:52;;;;;;;8.23;2.85;;;;;;;14.64;50.59;102480.19;5192271;28;20419;-41
2022/06/14 01:03:31;;;;;;;10.13;3.20;;;;;;;14.61;50.58;102471.63;5191267;28;20441;-40
2022/06/14 01:06:09;;;;;;;10.50;3.63;;;;;;;14.48;50.82;102459.41;5195639;28;20423;-40
2022/06/14 01:08:47;;;;;;;10.60;3.60;;;;;;;14.23;50.79;102418.19;5192720;28;20409;-42
2022/06/14 01:11:28;;;;;;;10.70;3.45;;;;;;;14.55;50.91;102475.69;5187779;28;20881;-41
2022/06/14 01:14:02;;;;;;;9.85;4.32;;;;;;;14.52;50.85;102471.50;5184446;28;20471;-40
2022/06/14 01:16:36;;;;;;;14.10;3.55;;;;;;;14.51;50.88;102463.63;5196237;28;20425;-41
2022/06/14 01:19:19;;;;;;;11.20;4.05;;;;;;;14.49;50.88;102461.09;5190405;28;20535;-42
2022/06/14 01:22:10;;;;;;;12.70;4.45;;;;;;;14.46;50.74;102457.84;5194918;28;20420;-40
2022/06/14 01:24:44;;;;;;;14.25;3.63;;;;;;;14.39;51.01;102454.91;5196009;28;20868;-41
2022/06/14 01:27:20;;;;;;;11.60;4.57;;;;;;;14.35;51.18;102457.97;5195843;28;20500;-40
2022/06/14 01:30:10;;;;;;;12.88;4.25;;;;;;;14.37;51.11;102459.53;5195694;28;20416;-40
2022/06/14 01:32:48;;;;;;;10.30;4.13;;;;;;;14.27;51.32;102448.84;5193543;28;20485;-41
2022/06/14 01:35:24;;;;;;;11.82;4.57;;;;;;;14.33;51.30;102465.22;5191619;28;20427;-39
2022/06/14 01:38:01;;;;;;;12.60;4.47;;;;;;;14.27;51.48;102448.84;5188507;28;20457;-41
2022/06/14 01:40:44;;;;;;;8.07;3.47;;;;;;;14.22;51.50;102464.34;5195723;28;20522;-41
2022/06/14 01:43:36;;;;;;;13.35;4.32;;;;;;;14.25;51.62;102448.16;5196608;28;20403;-40
2022/06/14 01:46:17;;;;;;;10.77;3.83;;;;;;;14.17;51.81;102433.84;5190258;28;20417;-40
2022/06/14 01:52:15;;;;;;;11.85;3.67;;;;;;;14.15;51.94;102444.59;5189911;28;20415;-43
2022/06/14 01:54:58;;;;;;;17.47;4.97;;;;;;;14.15;52.10;102441.09;5190985;28;20508;-41
2022/06/14 01:57:39;;;;;;;13.20;4.72;;;;;;;14.13;52.05;102438.59;5191634;28;20895;-40
2022/06/14 02:00:15;;;;;;;12.82;4.13;;;;;;;14.11;52.13;102440.53;5193888;28;20480;-40
2022/06/14 02:05:51;;;;;;;14.38;5.38;;;;;;;13.90;52.44;102413.19;5193302;28;20899;-40
2022/06/14 02:08:29;;;;;;;14.73;5.47;;;;;;;14.07;52.40;102439.13;5192940;28;21085;-40
2022/06/14 02:11:08;;;;;;;15.30;4.90;;;;;;;14.03;52.53;102438.56;5193553;28;20450;-42
2022/06/14 02:13:45;;;;;;;16.63;5.18;;;;;;;13.85;52.67;102410.94;5190875;28;20405;-42
2022/06/14 02:16:24;;;;;;;13.65;6.13;;;;;;;13.74;52.60;102398.56;5193467;28;20436;-40
2022/06/14 02:19:04;;;;;;;16.27;4.93;;;;;;;13.99;52.81;102436.28;5192280;28;20457;-41
2022/06/14 02:21:41;;;;;;;18.52;5.95;;;;;;;13.93;52.83;102426.19;5191040;28;20433;-41
2022/06/14 02:24:18;;;;;;;19.38;6.55;;;;;;;13.86;52.99;102430.34;5193608;28;20409;-40
2022/06/14 02:26:59;;;;;;;21.23;7.30;;;;;;;13.91;53.13;102428.16;5187646;28;21123;-39
2022/06/14 02:29:48;;;;;;;16.75;5.50;;;;;;;13.89;53.18;102435.41;5192439;28;20420;-41
2022/06/14 02:32:25;;;;;;;14.73;5.28;;;;;;;13.81;53.21;102428.94;5191127;28;20418;-39
2022/06/14 02:35:04;;;;;;;17.10;5.03;;;;;;;13.83;53.24;102432.28;5195313;28;20421;-39
2022/06/14 02:37:42;;;;;;;16.33;6.57;;;;;;;13.82;53.47;102427.97;5194315;28;20433;-41
2022/06/14 02:40:25;;;;;;;15.77;6.10;;;;;;;13.80;53.40;102427.25;5188149;28;20421;-41
2022/06/14 02:43:07;;;;;;;18.10;5.57;;;;;;;13.75;53.59;102418.84;5180913;28;20422;-40
2022/06/14 02:45:44;;;;;;;20.00;5.93;;;;;;;13.78;53.57;102431.88;5187511;28;20411;-40
2022/06/14 02:48:23;;;;;;;14.07;5.32;;;;;;;13.76;53.74;102431.16;5195857;28;20993;-40
2022/06/14 02:51:00;;;;;;;14.43;5.10;;;;;;;13.71;53.73;102422.72;5181167;28;20491;-40
2022/06/14 02:53:38;;;;;;;16.23;5.25;;;;;;;13.68;53.83;102425.63;5189701;28;20421;-40
2022/06/14 02:56:16;;;;;;;15.93;5.68;;;;;;;13.70;53.91;102420.22;5195948;28;20442;-41
2022/06/14 02:58:58;;;;;;;17.65;5.68;;;;;;;13.64;54.00;102416.25;5193950;28;20419;-40
2022/06/14 03:01:40;;;;;;;12.97;5.80;;;;;;;13.67;53.84;102421.31;5191334;28;20509;-41
2022/06/14 03:04:17;;;;;;;16.50;5.50;;;;;;;13.67;54.11;102421.31;5193228;28;20430;-41
2022/06/14 03:06:58;;;;;;;9.05;4.72;;;;;;;13.59;54.06;102413.16;5192696;28;20430;-39
2022/06/14 03:09:33;;;;;;;13.80;4.80;;;;;;;13.58;54.27;102400.88;5190984;28;20810;-41
2022/06/14 03:12:16;;;;;;;10.60;4.18;;;;;;;13.46;54.26;102391.28;5191565;28;20430;-41
2022/06/14 03:15:06;;;;;;;19.63;5.05;;;;;;;13.60;54.33;102414.84;5186692;28;20501;-40
2022/06/14 03:17:54;;;;;;;17.52;4.85;;;;;;;13.58;54.41;102416.78;5192012;28;20836;-40
2022/06/14 03:20:44;;;;;;;16.27;5.13;;;;;;;13.54;54.57;102400.28;5192857;28;20419;-41
2022/06/14 03:23:29;;;;;;;16.30;6.20;;;;;;;13.48;54.48;102403.47;5193555;28;20926;-40
2022/06/14 03:26:06;;;;;;;16.42;5.50;;;;;;;13.52;54.50;102406.69;5187302;28;20509;-40
2022/06/14 03:28:45;;;;;;;12.38;4.30;;;;;;;13.38;54.95;102406.06;5194389;28;20475;-41
2022/06/14 03:31:28;;;;;;;17.65;5.35;;;;;;;13.54;54.58;102418.88;5194260;28;20468;-41
2022/06/14 03:34:08;;;;;;;12.73;4.53;;;;;;;13.23;54.62;102359.56;5189525;28;20811;-40
2022/06/14 03:36:41;;;;;;;11.93;4.47;;;;;;;13.54;54.83;102412.72;5190624;28;20781;-40
2022/06/14 03:39:16;;;;;;;13.75;4.68;;;;;;;13.51;54.96;102415.63;5177131;28;20506;-40
2022/06/14 03:41:52;;;;;;;13.90;4.65;;;;;;;13.57;54.77;102417.78;5171091;28;20438;-41
2022/06/14 03:44:27;;;;;;;14.00;4.50;;;;;;;13.57;54.79;102415.13;5159290;28;20847;-41
2022/06/14 03:47:20;;;;;;;8.93;4.05;;;;;;;13.52;54.85;102402.22;5175199;28;20844;-40
2022/06/14 03:49:57;;;;;;;12.63;4.50;;;;;;;13.43;54.83;102386.25;5169998;28;20520;-39
2022/06/14 03:52:57;;;;;;;15.75;4.43;;;;;;;13.65;54.99;102422.41;5172083;28;20548;-41
2022/06/14 03:55:44;;;;;;;14.48;5.10;;;;;;;13.64;54.85;102426.88;5172170;28;20525;-40
2022/06/14 03:58:33;;;;;;;17.88;4.70;;;;;;;13.67;54.93;102426.63;5173236;28;20771;-40
2022/06/14 04:01:13;;;;;;;12.82;4.65;;;;;;;13.69;55.01;102413.19;5176182;28;20512;-41
2022/06/14 04:04:10;;;;;;;14.23;4.70;;;;;;;13.77;54.99;102414.22;5169469;28;20793;-42
2022/06/14 04:06:54;;;;;;;14.25;4.28;;;;;;;13.86;54.97;102431.19;5172074;28;20951;-42
2022/06/14 04:09:42;;;;;;;7.65;3.97;;;;;;;13.87;54.90;102421.41;5169471;28;20985;-40
2022/06/14 04:12:26;;;;;;;15.80;4.70;;;;;;;13.97;54.99;102425.81;5173410;28;20407;-40
2022/06/14 04:15:12;;;;;;;12.52;4.38;;;;;;;14.03;54.91;102427.09;5173439;28;20427;-41
2022/06/14 04:17:52;;;;;;;10.55;4.07;;;;;;;13.71;54.84;102364.31;5176749;28;20532;-41
2022/06/14 04:20:34;;;;;;;9.57;3.75;;;;;;;14.14;54.75;102424.31;5174370;28;20409;-41
2022/06/14 04:23:16;;;;;;;12.88;4.47;;;;;;;14.17;54.80;102421.41;5175492;28;20545;-41
2022/06/14 04:25:56;;;;;;;12.77;3.50;;;;;;;14.21;54.76;102422.78;5173076;28;20415;-41
2022/06/14 04:28:33;;;;;;;11.90;3.90;;;;;;;14.25;54.72;102421.56;5173382;28;20764;-41
2022/06/14 04:31:13;;;;;;;9.97;3.93;;;;;;;14.31;54.75;102414.88;5175270;28;20408;-40
2022/06/14 04:33:51;;;;;;;11.23;4.10;;;;;;;14.39;54.67;102417.69;5179381;28;20465;-41
2022/06/14 04:36:32;;;;;;;11.45;4.55;;;;;;;14.38;54.75;102410.69;5173243;28;20775;-41
2022/06/14 04:39:10;;;;;;;13.90;4.88;;;;;;;14.54;54.45;102423.50;5197217;28;20743;-40
2022/06/14 04:41:51;;;;;;;13.10;4.28;;;;;;;14.62;54.59;102428.97;5191571;28;20502;-41
2022/06/14 04:44:32;;;;;;;12.60;4.28;;;;;;;14.72;54.50;102428.97;5192886;28;20410;-40
2022/06/14 04:47:11;;;;;;;17.27;5.32;;;;;;;14.79;54.33;102423.94;5188914;28;20426;-41
2022/06/14 04:49:50;;;;;;;12.25;5.13;;;;;;;14.79;54.13;102410.66;5168222;28;20437;-41
2022/06/14 04:52:29;;;;;;;18.65;5.07;;;;;;;14.51;54.24;102362.63;5187480;28;20418;-39
2022/06/14 04:55:08;;;;;;;14.30;5.00;;;;;;;15.05;54.12;102425.09;5192205;28;20435;-39
2022/06/14 04:57:44;;;;;;;15.38;4.97;;;;;;;15.14;54.12;102429.56;5188449;28;20427;-41
2022/06/14 05:00:21;;;;;;;15.18;4.95;;;;;;;15.09;54.27;102420.31;5163139;28;20415;-40
2022/06/14 05:03:01;;;;;;;23.10;5.15;;;;;;;15.43;53.94;102439.34;5178148;28;20494;-41
2022/06/14 05:05:40;;;;;;;22.57;6.27;;;;;;;15.76;53.52;102447.84;5166190;28;20502;-40
2022/06/14 05:08:17;;;;;;;16.10;5.10;;;;;;;16.83;52.70;102446.34;5186171;28;20412;-40
2022/06/14 05:10:54;;;;;;;13.00;4.82;;;;;;;18.18;51.45;102437.16;5190010;28;20971;-41
2022/06/14 05:13:37;;;;;;;13.60;4.47;;;;;;;19.47;50.22;102434.00;5176873;28;20959;-41
2022/06/14 05:16:14;;;;;;;12.32;4.22;;;;;;;20.61;49.13;102438.16;5182576;28;20528;-42
2022/06/14 05:18:53;;;;;;;23.20;3.80;;;;;;;21.60;47.71;102407.63;5196401;28;20612;-40
2022/06/14 05:21:31;;;;;;;11.95;4.03;;;;;;;22.77;46.35;102423.78;5191676;28;20409;-41
2022/06/14 05:24:06;;;;;;;18.95;4.93;;;;;;;23.65;45.28;102407.28;5185689;28;20469;-41
2022/06/14 05:27:07;;;;;;;21.25;4.30;;;;;;;24.68;44.03;102435.13;5173781;28;20418;-42
2022/06/14 05:29:49;;;;;;;20.40;3.57;;;;;;;25.61;42.66;102442.44;5178244;28;20415;-41
2022/06/14 05:32:31;;;;;;;21.65;3.88;;;;;;;26.09;41.64;102410.47;5190163;28;20427;-40
2022/06/14 05:35:24;;;;;;;17.58;4.28;;;;;;;26.66;40.73;102422.28;5188079;28;20489;-42
2022/06/14 05:38:11;;;;;;;19.15;4.05;;;;;;;27.05;40.01;102423.03;5189031;28;20409;-42
2022/06/14 05:40:54;;;;;;;16.45;4.20;;;;;;;27.85;38.90;102425.00;5185142;28;20868;-42
2022/06/14 05:43:32;;;;;;;11.05;3.08;;;;;;;28.66;37.78;102425.63;5202019;28;20488;-41
2022/06/14 05:46:10;;;;;;;13.85;3.92;;;;;;;29.47;36.70;102410.44;5204214;28;20428;-42
2022/06/14 05:48:51;;;;;;;17.75;3.80;;;;;;;30.40;35.55;102415.91;5205267;28;20410;-42
2022/06/14 05:51:32;;;;;;;13.77;3.47;;;;;;;31.23;34.42;102426.03;5203900;28;20467;-40
2022/06/14 05:54:16;;;;;;;11.15;3.22;;;;;;;31.89;33.43;102420.69;5204804;28;20417;-41
2022/06/14 05:56:56;;;;;;;11.90;2.88;;;;;;;32.27;32.67;102415.38;5205625;28;20976;-41
2022/06/14 05:59:35;;;;;;;10.65;3.25;;;;;;;32.72;32.22;102422.38;5206048;28;20893;-42
2022/06/14 06:02:15;;;;;;;12.63;3.05;;;;;;;33.17;31.24;102423.84;5200619;28;20426;-42
2022/06/14 06:04:54;;;;;;;16.27;3.78;;;;;;;33.57;30.68;102417.78;5204463;28;20559;-42
2022/06/14 06:07:30;;;;;;;12.15;4.00;;;;;;;34.09;30.17;102422.38;5204490;28;20409;-41
2022/06/14 06:10:07;;;;;;;13.73;4.40;;;;;;;34.51;29.66;102432.34;5194898;28;20429;-41
2022/06/14 06:12:46;;;;;;;11.40;3.65;;;;;;;34.76;28.98;102428.81;5206778;28;20421;-41
2022/06/14 06:15:23;;;;;;;12.10;2.72;;;;;;;34.96;28.51;102422.47;5207882;28;20405;-41
2022/06/14 06:17:59;;;;;;;15.83;3.80;;;;;;;35.22;28.50;102428.78;5205506;28;20511;-43
2022/06/14 06:20:40;;;;;;;13.07;3.35;;;;;;;35.44;28.08;102433.13;5209879;28;20414;-41
2022/06/14 06:23:19;;;;;;;10.98;3.50;;;;;;;35.49;27.36;102424.84;5201723;28;20447;-41
2022/06/14 06:25:56;;;;;;;11.98;3.10;;;;;;;35.71;27.04;102417.13;5204417;28;20434;-41
2022/06/14 06:28:35;;;;;;;12.18;2.85;;;;;;;36.09;26.90;102428.47;5215895;28;20893;-42
2022/06/14 06:31:14;;;;;;;10.75;2.40;;;;;;;36.28;26.29;102411.31;5206370;28;20512;-41
2022/06/14 06:33:50;;;;;;;10.98;2.45;;;;;;;36.59;26.12;102432.00;5210930;28;20957;-41
2022/06/14 06:36:38;;;;;;;8.85;2.67;;;;;;;36.55;25.82;102419.13;5209659;28;20417;-40
2022/06/14 06:39:30;;;;;;;7.90;2.10;;;;;;;36.48;25.67;102419.38;5203731;28;20809;-43
2022/06/14 06:42:11;;;;;;;6.40;2.15;;;;;;;36.66;25.50;102443.50;5200651;28;20412;-42
2022/06/14 06:45:00;;;;;;;6.43;2.10;;;;;;;36.75;25.22;102445.63;5205619;28;20806;-41
2022/06/14 06:47:37;;;;;;;5.93;1.95;;;;;;;36.94;25.09;102444.63;5201458;28;20905;-41
2022/06/14 06:50:23;;;;;;;5.40;2.10;;;;;;;37.01;24.91;102446.25;5192063;28;20414;-41
2022/06/14 06:53:05;;;;;;;9.75;2.45;;;;;;;37.08;24.73;102450.31;5198047;28;20503;-43
2022/06/14 06:55:45;;;;;;;7.03;1.98;;;;;;;37.14;24.24;102429.03;5203103;28;20491;-41
2022/06/14 06:58:25;;;;;;;4.70;1.60;;;;;;;37.33;24.26;102423.59;5200768;28;20430;-41
2022/06/14 07:01:04;;;;;;;7.17;1.87;;;;;;;37.54;24.22;102447.09;5201573;28;20459;-41
2022/06/14 07:03:43;;;;;;;5.10;1.80;;;;;;;37.23;23.98;102440.22;5203493;28;20414;-41
2022/06/14 07:06:25;;;;;;;5.65;1.60;;;;;;;37.16;24.01;102444.16;5203505;28;20440;-41
2022/06/14 07:09:05;;;;;;;5.50;1.42;;;;;;;37.27;23.84;102450.38;5181034;28;20703;-40
2022/06/14 07:11:44;;;;;;;5.22;1.30;;;;;;;37.19;23.63;102452.94;5186092;28;20837;-41
2022/06/14 07:14:24;;;;;;;7.73;1.53;;;;;;;37.19;23.56;102445.50;5207698;28;20421;-41
2022/06/14 07:17:04;;;;;;;5.00;1.45;;;;;;;37.11;23.65;102443.41;5203129;28;20409;-42
2022/06/14 07:19:42;;;;;;;4.13;1.25;;;;;;;37.09;23.60;102442.88;5207271;28;20435;-40
2022/06/14 07:22:22;;;;;;;7.85;1.40;;;;;;;37.15;23.38;102456.28;5194846;28;20454;-41
2022/06/14 07:25:01;;;;;;;5.00;1.17;;;;;;;37.18;23.27;102446.63;5197080;28;20401;-42
2022/06/14 07:27:38;;;;;;;6.70;1.60;;;;;;;37.16;23.17;102440.56;5207069;28;20471;-41
2022/06/14 07:30:16;;;;;;;4.85;1.40;;;;;;;36.98;23.35;102452.28;5198521;28;20448;-42
2022/06/14 07:32:55;;;;;;;5.30;1.23;;;;;;;36.78;23.53;102450.56;5211891;28;20971;-42
2022/06/14 07:35:31;;;;;;;6.47;1.43;;;;;;;36.67;23.56;102450.66;5205226;28;20528;-41
2022/06/14 07:38:14;;;;;;;5.43;1.33;;;;;;;36.46;23.42;102422.44;5207926;28;20421;-42
2022/06/14 07:40:53;;;;;;;3.65;1.20;;;;;;;36.48;23.39;102442.25;5205537;28;20471;-42
2022/06/14 07:43:30;;;;;;;4.53;1.20;;;;;;;36.37;23.45;102450.88;5202940;28;20409;-43
2022/06/14 07:46:08;;;;;;;1.83;1.10;;;;;;;36.08;23.68;102446.09;5192430;28;20483;-42
2022/06/14 07:48:47;;;;;;;2.70;1.40;;;;;;;35.65;23.79;102444.88;5207530;28;20420;-41
2022/06/14 07:51:27;;;;;;;5.32;1.50;;;;;;;35.36;23.69;102444.69;5210067;28;20420;-41
2022/06/14 07:54:06;;;;;;;5.28;1.45;;;;;;;35.10;23.49;102439.25;5189621;28;20403;-39
2022/06/14 07:56:48;;;;;;;7.47;1.60;;;;;;;34.52;23.89;102438.66;5204727;28;20421;-41
2022/06/14 07:59:29;;;;;;;6.38;1.33;;;;;;;34.10;23.91;102439.66;5210014;28;20429;-41
2022/06/14 08:02:07;;;;;;;5.77;1.50;;;;;;;33.66;24.08;102449.06;5209871;28;20433;-41
2022/06/14 08:04:46;;;;;;;4.95;1.27;;;;;;;32.86;24.29;102407.19;5208268;28;20449;-42
2022/06/14 08:07:20;;;;;;;4.35;1.50;;;;;;;32.59;24.54;102435.41;5211295;28;20417;-41
2022/06/14 08:10:01;;;;;;;7.50;1.52;;;;;;;32.29;24.61;102446.84;5202609;28;20873;-48
2022/06/14 08:12:39;;;;;;;3.70;1.27;;;;;;;31.95;24.64;102429.78;5211830;28;20402;-41
2022/06/14 08:15:19;;;;;;;4.95;1.42;;;;;;;31.68;24.80;102424.22;5210115;28;20480;-41
2022/06/14 08:17:59;;;;;;;5.57;1.70;;;;;;;31.51;24.90;102435.22;5206946;28;20467;-40
2022/06/14 08:20:42;;;;;;;3.47;1.60;;;;;;;31.45;24.79;102436.22;5206320;28;20495;-41
2022/06/14 08:23:20;;;;;;;5.75;1.63;;;;;;;31.28;25.16;102438.97;5214546;28;20463;-41
2022/06/14 08:26:05;;;;;;;5.00;1.40;;;;;;;31.19;25.02;102444.00;5207283;28;20530;-41
2022/06/14 08:28:44;;;;;;;6.80;1.50;;;;;;;31.09;25.09;102438.38;5210280;28;20786;-41
2022/06/14 08:31:20;;;;;;;3.97;1.60;;;;;;;30.91;25.20;102408.63;5206864;28;20417;-41
2022/06/14 08:33:57;;;;;;;5.40;2.05;;;;;;;31.10;25.26;102440.03;5200857;28;20447;-40
2022/06/14 08:36:38;;;;;;;5.53;1.70;;;;;;;31.13;25.09;102433.28;5208853;28;20485;-40
2022/06/14 08:39:15;;;;;;;7.20;1.58;;;;;;;31.05;25.16;102433.69;5208628;28;20426;-39
2022/06/14 08:42:18;;;;;;;4.53;1.13;;;;;;;30.86;25.12;102425.75;5208727;28;20405;-42
2022/06/14 08:44:58;;;;;;;3.53;1.35;;;;;;;30.70;25.30;102421.91;5204631;28;20405;-40
2022/06/14 08:47:53;;;;;;;3.42;1.20;;;;;;;30.72;25.37;102425.22;5204502;28;20410;-40
2022/06/14 08:51:12;;;;;;;6.18;1.55;;;;;;;30.73;25.19;102424.13;5206076;28;20409;-41
2022/06/14 08:54:31;;;;;;;7.30;1.55;;;;;;;30.77;25.21;102419.88;5202220;28;20944;-41
2022/06/14 08:57:27;;;;;;;5.70;1.30;;;;;;;30.72;25.24;102417.03;5181174;28;20441;-41
2022/06/14 09:00:20;;;;;;;6.53;1.35;;;;;;;30.60;25.30;102397.19;5206416;28;20424;-41
2022/06/14 09:03:55;;;;;;;6.28;1.40;;;;;;;30.66;25.50;102412.56;5207452;28;20535;-41
2022/06/14 09:07:08;;;;;;;4.10;1.20;;;;;;;30.66;25.52;102420.75;5142155;28;20510;-41
2022/06/14 09:10:15;;;;;;;3.72;1.30;;;;;;;30.48;25.56;102416.34;5203320;28;21117;-40
2022/06/14 09:13:38;;;;;;;4.20;1.38;;;;;;;30.27;25.63;102412.41;5208834;28;20441;-40
2022/06/14 09:16:33;;;;;;;4.82;1.58;;;;;;;29.90;26.00;102413.84;5168041;28;20428;-40
2022/06/14 09:19:28;;;;;;;4.93;1.50;;;;;;;29.58;26.18;102416.97;5198534;28;20837;-40
2022/06/14 09:22:10;;;;;;;4.80;1.73;;;;;;;29.45;26.31;102409.03;5194796;28;20433;-45
2022/06/14 09:25:13;;;;;;;5.27;1.93;;;;;;;29.29;26.36;102408.69;5191942;28;20551;-41
2022/06/14 09:28:11;;;;;;;5.57;1.90;;;;;;;28.98;26.48;102379.06;5204079;28;20492;-44
2022/06/14 09:31:13;;;;;;;6.00;1.80;;;;;;;29.04;26.46;102400.75;5197174;28;20504;-41
2022/06/14 09:34:43;;;;;;;3.38;1.20;;;;;;;28.71;26.83;102407.56;5196898;28;20414;-41
2022/06/14 09:37:44;;;;;;;5.35;2.03;;;;;;;28.28;27.10;102391.44;5172715;28;20551;-41
2022/06/14 09:40:52;;;;;;;3.85;1.60;;;;;;;28.22;27.15;102397.81;5203271;28;20491;-41
2022/06/14 09:44:03;;;;;;;4.32;1.40;;;;;;;27.99;27.22;102396.63;5199932;28;20427;-40
2022/06/14 09:47:10;;;;;;;5.65;1.98;;;;;;;27.64;27.34;102390.16;5203759;28;20413;-40
2022/06/14 09:50:14;;;;;;;6.73;2.00;;;;;;;27.31;27.41;102375.03;5205512;28;21011;-39
2022/06/14 09:53:27;;;;;;;4.18;1.38;;;;;;;27.24;27.59;102363.44;5202620;28;20420;-39
2022/06/14 09:56:21;;;;;;;3.13;1.30;;;;;;;27.29;27.62;102396.97;5203075;28;20518;-41
2022/06/14 09:59:39;;;;;;;5.10;1.65;;;;;;;27.31;27.73;102402.16;5202907;28;20916;-40
2022/06/14 10:02:19;;;;;;;7.80;2.07;;;;;;;27.35;27.58;102404.22;5170797;28;20429;-42
2022/06/14 10:05:25;;;;;;;4.30;1.60;;;;;;;27.44;27.57;102396.63;5203418;28;20420;-40
2022/06/14 10:08:30;;;;;;;4.40;1.80;;;;;;;27.37;27.62;102395.84;5202247;28;24747;-41
2022/06/14 10:11:37;;;;;;;4.07;1.60;;;;;;;27.27;27.74;102396.34;5201032;28;20496;-41
2022/06/14 10:14:27;;;;;;;3.17;1.58;;;;;;;27.26;27.75;102388.47;5203089;28;20773;-39
2022/06/14 10:17:31;;;;;;;4.97;1.88;;;;;;;27.22;27.79;102392.66;5202369;28;20483;-40
2022/06/14 10:20:47;;;;;;;2.83;1.30;;;;;;;27.03;27.82;102389.88;5199376;28;20421;-40
2022/06/14 10:23:46;;;;;;;9.85;1.98;;;;;;;27.10;27.87;102379.00;5193981;28;20413;-39
2022/06/14 10:29:49;;;;;;;4.65;1.80;;;;;;;26.99;27.52;102345.28;5200640;28;20889;-42
2022/06/14 10:32:53;;;;;;;3.28;1.73;;;;;;;27.20;27.41;102356.81;5204828;28;20413;-43
2022/06/14 10:35:42;;;;;;;3.83;1.70;;;;;;;27.38;27.21;102372.25;5200386;28;20950;-40
2022/06/14 10:38:46;;;;;;;10.48;2.35;;;;;;;27.21;27.04;102336.75;5157364;28;20910;-41
2022/06/14 10:41:31;;;;;;;6.22;2.05;;;;;;;27.29;26.95;102364.44;5188259;28;20514;-41
2022/06/14 10:44:17;;;;;;;2.97;1.57;;;;;;;27.40;26.93;102370.97;5171282;28;20814;-41
2022/06/14 10:47:01;;;;;;;4.28;1.95;;;;;;;26.82;27.08;102322.50;5196171;28;20901;-41
2022/06/14 10:49:59;;;;;;;5.97;1.90;;;;;;;26.46;27.59;102367.38;5195390;28;20448;-43
2022/06/14 10:52:45;;;;;;;4.50;1.88;;;;;;;26.30;28.10;102362.47;5197625;28;20416;-40
2022/06/14 10:56:04;;;;;;;6.85;1.73;;;;;;;26.18;28.24;102371.28;5200317;28;20417;-40
2022/06/14 10:59:28;;;;;;;4.10;1.63;;;;;;;25.92;28.54;102372.25;5198491;28;20428;-41
2022/06/14 11:02:13;;;;;;;4.55;2.05;;;;;;;25.85;28.49;102359.78;5196481;28;20414;-41
2022/06/14 11:04:52;;;;;;;7.50;1.83;;;;;;;25.89;28.71;102347.47;5200120;28;20470;-41
2022/06/14 11:08:12;;;;;;;6.78;1.90;;;;;;;26.01;28.43;102331.38;5195314;28;20944;-40
2022/06/14 11:11:32;;;;;;;5.57;1.90;;;;;;;26.45;28.29;102357.59;5200099;28;20949;-40
2022/06/14 11:14:12;;;;;;;4.07;1.67;;;;;;;26.49;28.43;102339.88;5176376;28;20442;-39
2022/06/14 11:17:26;;;;;;;4.38;1.92;;;;;;;26.42;28.78;102329.06;5195707;28;20417;-39
2022/06/14 11:20:16;;;;;;;5.27;1.63;;;;;;;26.47;28.92;102347.34;5192580;28;20418;-40
2022/06/14 11:22:54;;;;;;;5.60;2.15;;;;;;;26.36;29.08;102339.94;5202768;28;20421;-41
2022/06/14 11:25:37;;;;;;;8.27;2.13;;;;;;;26.54;28.97;102342.75;5199932;28;20475;-40
2022/06/14 11:28:23;;;;;;;7.28;2.10;;;;;;;26.66;29.07;102350.97;5206289;28;20428;-41
2022/06/14 11:31:06;;;;;;;5.10;1.70;;;;;;;26.73;29.06;102356.34;5200784;28;20413;-41
2022/06/14 11:34:06;;;;;;;6.32;2.30;;;;;;;26.71;29.24;102336.78;5202733;28;20874;-41
2022/06/14 11:37:14;;;;;;;5.22;2.15;;;;;;;26.67;29.25;102344.53;5204956;28;20516;-41
2022/06/14 11:39:49;;;;;;;10.00;2.20;;;;;;;26.84;29.34;102348.31;5207639;28;20417;-41
2022/06/14 11:42:26;;;;;;;6.22;1.92;;;;;;;26.85;29.15;102331.03;5204595;28;20789;-40
2022/06/14 11:45:13;;;;;;;4.65;1.77;;;;;;;27.07;29.33;102336.88;5204516;28;20476;-39
2022/06/14 11:47:55;;;;;;;6.53;1.88;;;;;;;27.22;29.33;102327.56;5205538;28;20567;-39
2022/06/14 11:50:39;;;;;;;6.30;2.00;;;;;;;27.23;29.16;102291.25;5202686;28;20429;-42
2022/06/14 11:53:53;;;;;;;4.68;2.05;;;;;;;27.58;29.11;102329.44;5204855;28;20510;-39
2022/06/14 11:56:34;;;;;;;7.22;2.17;;;;;;;27.67;29.02;102324.53;5177817;28;20401;-40
2022/06/14 11:59:25;;;;;;;7.10;1.80;;;;;;;27.67;29.29;102327.25;5207160;28;20544;-40
2022/06/14 12:02:17;;;;;;;6.00;2.08;;;;;;;27.51;29.18;102332.25;5204591;28;20898;-41
2022/06/14 12:05:02;;;;;;;7.45;2.42;;;;;;;26.99;29.47;102320.06;5203573;28;20425;-41
2022/06/14 12:07:40;;;;;;;6.53;2.15;;;;;;;26.86;29.50;102326.44;5202876;28;20484;-40
2022/06/14 12:11:01;;;;;;;5.70;2.00;;;;;;;26.81;29.55;102318.13;5204309;28;20556;-41
2022/06/14 12:14:35;;;;;;;8.43;2.63;;;;;;;26.81;29.59;102320.84;5198459;28;20905;-40
2022/06/14 12:17:17;;;;;;;5.55;2.10;;;;;;;27.01;29.39;102309.81;5203533;28;20436;-41
2022/06/14 12:19:55;;;;;;;7.57;2.23;;;;;;;27.22;29.06;102314.00;5199518;28;20509;-41
2022/06/14 12:22:34;;;;;;;11.45;2.30;;;;;;;27.34;28.77;102298.63;5198563;28;20412;-41
2022/06/14 12:28:13;;;;;;;6.00;1.95;;;;;;;27.58;28.75;102311.28;5180703;28;20411;-43
2022/06/14 12:30:47;;;;;;;5.43;1.88;;;;;;;27.55;28.58;102317.16;5196885;28;20422;-40
2022/06/14 12:33:30;;;;;;;4.75;1.83;;;;;;;27.64;28.66;102303.28;5203740;28;20512;-40
2022/06/14 12:36:21;;;;;;;6.95;2.28;;;;;;;27.68;28.67;102305.31;5203485;28;20420;-40
2022/06/14 12:38:59;;;;;;;4.70;1.80;;;;;;;27.71;28.52;102295.88;5201880;28;20415;-41
2022/06/14 12:41:37;;;;;;;4.20;1.95;;;;;;;27.58;28.69;102300.41;5200892;28;20428;-41
2022/06/14 12:44:39;;;;;;;2.72;1.73;;;;;;;27.54;28.68;102292.97;5203762;28;20425;-40
2022/06/14 12:47:23;;;;;;;7.70;2.05;;;;;;;26.78;29.20;102261.66;5204097;28;20413;-38
2022/06/14 12:50:05;;;;;;;7.13;2.07;;;;;;;26.65;29.67;102301.38;5203134;28;20577;-39
2022/06/14 12:52:43;;;;;;;4.57;1.42;;;;;;;26.17;30.00;102277.56;5205632;28;20500;-39
2022/06/14 12:55:20;;;;;;;4.70;2.00;;;;;;;26.22;30.13;102291.25;5206605;28;20416;-41